Latest Weather Observations for Launceston Airport

IDT60801

Issued at 10:01 pm EDT Saturday 13 February 2016 (issued every 30 minutes, with the page automatically refreshed every 10 minutes)

About weather observations | Map of weather stations | Latest weather observations for TAS | Other Formats
Station Details ID: 091311 Name: LAUNCESTON AIRPORT Lat: -41.55 Lon: 147.21 Height: 166.9 m
Data from the previous 72 hours. | See also: Recent months at Launceston Airport
Date/Time
EDT
Temp
°C
App
Temp
°C
Dew
Point
Rel
Hum
%
Delta-T
°C
Wind Press
QNH
hPa
Press
MSL
hPa
Rain
since 9 am
mm
Dir
 
Spd
km/h
Gust
km/h
Spd
kts
Gust
kts
13/10:00pm 17.6 14.7 14.1 80 2.0 NNW 22 28 12 15 1004.4 1004.0 0.0
13/09:36pm 18.0 15.1 13.9 77 2.4 NNW 22 28 12 15 1004.0 1003.6 0.0
13/09:30pm 17.9 14.5 13.6 76 2.5 NNW 24 30 13 16 1003.9 1003.5 0.0
13/09:00pm 18.6 14.1 13.7 73 2.8 NNW 30 35 16 19 1003.6 1003.2 0.0
13/08:30pm 19.2 14.3 13.6 70 3.2 NNW 32 39 17 21 1003.2 1002.8 0.0
13/08:00pm 19.9 14.8 13.6 67 3.7 NNW 33 46 18 25 1002.9 1002.5 0.0
13/07:30pm 20.4 16.3 13.8 66 3.8 NNW 28 39 15 21 1002.6 1002.2 0.0
13/07:27pm 20.5 16.8 13.9 66 3.8 NNW 26 39 14 21 1002.5 1002.1 0.0
13/07:00pm 20.8 15.9 13.7 64 4.1 N 32 39 17 21 1002.4 1002.0 0.0
13/06:30pm 20.9 15.8 13.8 64 4.1 NNW 33 39 18 21 1002.2 1001.8 0.0
13/06:00pm 21.6 16.1 13.5 60 4.7 NNW 35 44 19 24 1002.3 1001.9 0.0
13/05:30pm 21.3 14.1 13.2 60 4.7 NNW 43 52 23 28 1002.5 1002.1 0.0
13/05:00pm 21.3 13.9 12.4 57 5.1 NNW 43 52 23 28 1002.3 1001.9 0.0
13/04:30pm 22.9 15.6 12.8 53 5.8 NNW 43 54 23 29 1002.2 1001.8 0.0
13/04:00pm 24.4 17.0 12.4 47 7.0 NNW 43 54 23 29 1002.2 1001.8 0.0
13/03:30pm 25.4 17.0 7.5 32 9.5 NNW 41 54 22 29 1002.2 1001.8 0.0
13/03:00pm 25.9 17.8 7.0 30 10.1 NNW 39 54 21 29 1002.5 1002.1 0.0
13/02:30pm 25.3 17.9 10.0 38 8.5 NNW 39 52 21 28 1003.2 1002.8 0.0
13/02:00pm 26.0 19.1 10.2 37 8.9 NNW 37 50 20 27 1003.3 1002.9 0.0
13/01:30pm 25.4 18.7 12.3 44 7.6 NNW 39 50 21 27 1003.7 1003.3 0.0
13/01:00pm 25.0 19.5 12.6 46 7.2 NNW 33 48 18 26 1004.2 1003.8 0.0
13/12:30pm 25.1 20.1 13.3 48 6.9 NNW 32 43 17 23 1004.7 1004.3 0.0
13/12:00pm 24.4 20.0 14.2 53 6.1 NNW 30 41 16 22 1005.0 1004.6 0.0
13/11:30am 23.1 18.9 14.7 59 5.0 NNW 30 41 16 22 1005.4 1005.0 0.0
13/11:00am 23.0 19.1 15.6 63 4.5 NNW 30 37 16 20 1005.8 1005.3 0.0
13/10:30am 20.8 17.5 15.1 70 3.4 NNW 26 35 14 19 1006.2 1005.7 0.0
13/10:18am 21.4 18.8 15.9 71 3.3 NNW 24 30 13 16 1006.3 1005.8 0.0
13/10:08am 20.1 18.0 15.1 73 3.0 NNW 20 30 11 16 1006.3 1005.8 0.0
13/10:00am 19.3 16.7 14.8 75 2.7 NNW 22 30 12 16 1006.5 1006.0 0.0
13/09:39am 20.0 18.1 15.8 77 2.5 NNW 20 30 11 16 1006.7 1006.2 0.0
13/09:30am 19.1 16.8 15.8 81 2.0 NNW 22 28 12 15 1006.9 1006.5 0.0
13/09:00am 17.9 15.8 15.3 85 1.5 NNW 20 28 11 15 1007.3 1006.9 0.0
13/08:48am 17.7 15.6 15.1 85 1.5 NNW 20 26 11 14 1007.0 1006.6 0.0
13/08:31am 17.7 15.3 15.5 87 1.3 NNW 22 30 12 16 1007.2 1006.8 0.0
13/08:30am 17.7 15.8 15.7 88 1.2 NNW 20 30 11 16 1007.2 1006.8 0.0
13/08:00am 17.2 15.0 15.0 87 1.3 WNW 20 28 11 15 1007.7 1007.3 0.0
13/07:43am 16.6 14.4 14.8 89 1.0 NNW 20 28 11 15 1006.3 1005.8 0.0
13/07:39am 16.5 13.9 14.9 90 0.9 N 22 28 12 15 1006.5 1006.0 0.0
13/07:30am 16.4 14.2 14.9 91 0.9 N 20 28 11 15 1006.5 1006.0 0.0
13/07:13am 16.3 14.6 14.8 91 0.9 N 17 22 9 12 1007.1 1006.7 0.0
13/07:00am 16.3 14.6 14.8 91 0.9 NNW 17 22 9 12 1007.4 1007.0 0.0
13/06:30am 16.4 14.4 14.9 91 0.9 NW 19 22 10 12 1007.8 1007.4 0.0
13/06:26am 16.4 14.5 15.1 92 0.8 NW 19 24 10 13 1007.8 1007.4 0.0
13/06:00am 16.2 14.6 14.9 92 0.8 NNW 17 22 9 12 1007.5 1007.1 0.0
13/05:30am 16.5 15.0 15.2 92 0.8 NNW 17 24 9 13 1007.6 1007.2 0.0
13/05:00am 16.3 14.6 14.8 91 0.9 NNW 17 19 9 10 1007.6 1007.2 0.0
13/04:45am 16.3 14.3 15.0 92 0.8 NNW 19 22 10 12 1007.9 1007.5 0.0
13/04:30am 16.5 14.7 15.4 93 0.6 NW 19 24 10 13 1008.0 1007.6 0.0
13/04:14am 16.1 14.9 15.1 94 0.6 NW 15 20 8 11 1007.9 1007.5 0.0
13/04:00am 16.0 15.2 15.0 94 0.6 NNW 13 17 7 9 1007.9 1007.5 0.0
13/03:48am 16.1 15.7 15.1 94 0.6 NNW 11 13 6 7 1008.4 1008.0 0.0
13/03:30am 16.0 14.7 14.9 93 0.6 N 15 17 8 9 1008.5 1008.1 0.0
13/03:00am 16.0 14.4 14.9 93 0.6 NW 17 20 9 11 1009.1 1008.7 0.0
13/02:30am 16.2 13.7 15.1 93 0.6 NNW 22 28 12 15 1009.3 1008.9 0.0
13/02:17am 15.9 13.3 14.8 93 0.6 NNW 22 28 12 15 1009.6 1009.2 0.0
13/02:00am 16.3 13.4 15.2 93 0.6 NNW 24 32 13 17 1009.6 1009.2 0.0
13/01:58am 16.3 13.4 15.2 93 0.6 NNW 24 30 13 16 1009.6 1009.2 0.0
13/01:30am 15.7 13.4 14.6 93 0.6 NW 20 22 11 12 1009.8 1009.4 0.0
13/01:00am 15.4 13.9 14.1 92 0.7 NW 15 19 8 10 1010.4 1010.0 0.0
13/12:30am 16.3 14.4 14.3 88 1.1 NW 17 20 9 11 1010.6 1010.2 0.0
13/12:00am 16.5 14.6 14.3 87 1.3 NW 17 20 9 11 1010.7 1010.3 0.0
 
Date/Time
EDT
Temp
°C
App
Temp
°C
Dew
Point
Rel
Hum
%
Delta-T
°C
Wind Press
QNH
hPa
Press
MSL
hPa
Rain
since 9 am
mm
Dir
 
Spd
km/h
Gust
km/h
Spd
kts
Gust
kts
12/11:30pm 16.3 14.8 14.3 88 1.1 NW 15 17 8 9 1011.1 1010.7 0.0
12/11:00pm 15.7 14.3 13.5 87 1.2 NNW 13 17 7 9 1011.4 1011.0 0.0
12/10:30pm 16.1 14.2 13.0 82 1.7 NNW 15 17 8 9 1012.0 1011.6 0.0
12/10:00pm 16.9 14.9 12.8 77 2.3 NNW 15 17 8 9 1012.3 1011.9 0.0
12/09:30pm 17.8 15.5 12.9 73 2.8 NW 17 20 9 11 1012.5 1012.1 0.0
12/09:00pm 17.9 15.5 12.8 72 2.9 NNW 17 19 9 10 1012.3 1011.9 0.0
12/08:30pm 18.3 15.2 12.3 68 3.4 NW 20 26 11 14 1012.6 1012.2 0.0
12/08:00pm 19.4 16.1 12.7 65 3.8 NNW 22 28 12 15 1012.5 1012.1 0.0
12/07:30pm 20.6 16.5 12.6 60 4.6 NNW 26 32 14 17 1012.6 1012.2 0.0
12/07:00pm 21.8 16.5 12.4 55 5.4 NNW 32 37 17 20 1012.7 1012.3 0.0
12/06:30pm 22.7 17.5 11.7 49 6.2 NNW 30 39 16 21 1012.7 1012.3 0.0
12/06:00pm 23.4 18.0 12.1 49 6.5 NNW 32 39 17 21 1012.6 1012.2 0.0
12/05:30pm 24.0 18.1 11.3 45 7.2 NNW 33 44 18 24 1012.6 1012.2 0.0
12/05:00pm 24.5 17.8 11.1 43 7.6 NNW 37 46 20 25 1012.5 1012.1 0.0
12/04:30pm 25.6 20.4 12.8 45 7.5 NNW 32 48 17 26 1012.6 1012.2 0.0
12/04:24pm 25.0 20.1 12.6 46 7.2 NNW 30 48 16 26 1012.6 1012.2 0.0
12/04:00pm 25.7 20.2 11.8 42 8.0 NNW 32 43 17 23 1013.0 1012.6 0.0
12/03:30pm 26.0 21.3 13.2 45 7.5 NNW 30 43 16 23 1013.3 1012.9 0.0
12/03:00pm 25.7 21.4 12.2 43 7.8 NW 26 41 14 22 1013.7 1013.3 0.0
12/02:30pm 25.6 22.2 12.4 43 7.7 NNW 22 35 12 19 1014.0 1013.6 0.0
12/02:00pm 23.5 21.2 13.1 52 6.0 N 17 30 9 16 1014.4 1014.0 0.0
12/01:30pm 23.6 22.1 13.2 52 6.1 NNW 13 20 7 11 1014.8 1014.4 0.0
12/01:00pm 23.5 21.4 11.2 46 6.9 NNW 13 20 7 11 1015.3 1014.9 0.0
12/12:30pm 23.2 21.9 12.5 51 6.2 NNW 11 19 6 10 1015.8 1015.4 0.0
12/12:00pm 23.4 22.8 12.4 50 6.3 NNW 7 17 4 9 1016.2 1015.8 0.0
12/11:30am 21.4 20.2 11.7 54 5.5 NNW 9 17 5 9 1016.8 1016.4 0.0
12/11:00am 20.6 20.5 13.3 63 4.2 SSW 6 7 3 4 1017.2 1016.9 0.0
12/10:30am 19.4 18.4 12.4 64 3.9 W 9 15 5 8 1017.6 1017.3 0.0
12/10:00am 19.3 18.9 13.0 67 3.6 SE 7 13 4 7 1017.8 1017.5 0.0
12/09:30am 18.3 16.7 12.7 70 3.2 S 13 19 7 10 1018.0 1017.7 0.0
12/09:00am 17.0 15.8 12.9 77 2.3 S 11 17 6 9 1017.8 1017.5 0.0
12/08:30am 16.0 14.5 13.1 83 1.6 S 13 15 7 8 1017.7 1017.4 0.0
12/08:00am 14.8 13.6 12.7 87 1.2 SSE 11 13 6 7 1017.5 1017.2 0.0
12/07:30am 13.6 12.6 12.2 91 0.8 S 9 11 5 6 1017.4 1017.1 0.0
12/07:00am 12.7 11.4 11.4 92 0.7 S 9 11 5 6 1017.2 1016.9 0.0
12/06:30am 12.9 12.3 11.8 93 0.6 SW 6 7 3 4 1017.1 1016.8 0.0
12/06:00am 12.7 12.0 11.4 92 0.7 SSE 6 7 3 4 1017.0 1016.6 0.0
12/05:30am 13.1 11.6 11.8 92 0.7 S 11 13 6 7 1016.9 1016.5 0.0
12/05:00am 12.9 12.2 11.5 91 0.7 SSW 6 7 3 4 1017.0 1016.6 0.0
12/04:30am 13.1 12.5 11.7 91 0.8 SSE 6 7 3 4 1016.9 1016.5 0.0
12/04:00am 13.2 12.3 11.3 88 1.0 SSE 7 9 4 5 1017.2 1016.9 0.0
12/03:30am 13.6 12.9 11.3 86 1.2 SE 6 6 3 3 1017.4 1017.1 0.0
12/03:00am 13.9 13.2 11.4 85 1.3 SSE 6 7 3 4 1017.5 1017.2 0.0
12/02:30am 14.1 13.1 10.9 81 1.7 SSW 7 9 4 5 1017.6 1017.3 0.0
12/02:00am 14.5 13.5 11.1 80 1.8 SW 7 9 4 5 1017.5 1017.2 0.0
12/01:30am 15.1 14.1 11.1 77 2.1 SSW 7 9 4 5 1017.7 1017.4 0.0
12/01:00am 15.1 13.7 10.9 76 2.2 SW 9 11 5 6 1018.0 1017.7 0.0
12/12:30am 15.5 14.5 11.1 75 2.4 SSE 7 7 4 4 1017.9 1017.6 0.0
12/12:00am 16.5 15.4 11.9 74 2.5 SSE 9 11 5 6 1018.2 1017.8 0.0
 
Date/Time
EDT
Temp
°C
App
Temp
°C
Dew
Point
Rel
Hum
%
Delta-T
°C
Wind Press
QNH
hPa
Press
MSL
hPa
Rain
since 9 am
mm
Dir
 
Spd
km/h
Gust
km/h
Spd
kts
Gust
kts
11/11:30pm 16.9 15.6 12.6 76 2.4 W 11 13 6 7 1018.0 1017.7 0.0
11/11:00pm 17.0 15.4 12.7 76 2.4 NW 13 17 7 9 1018.0 1017.7 0.0
11/10:30pm 16.7 14.6 12.3 75 2.4 NW 15 19 8 10 1017.7 1017.4 0.0
11/10:00pm 17.8 15.8 12.7 72 2.9 NW 15 19 8 10 1017.8 1017.5 0.0
11/09:30pm 17.8 14.8 12.5 71 3.0 NNW 20 24 11 13 1017.3 1017.0 0.0
11/09:00pm 17.7 14.1 11.9 69 3.2 NNW 22 30 12 16 1016.8 1016.4 0.0
11/08:30pm 18.6 14.5 11.4 63 4.0 NNW 24 30 13 16 1016.5 1016.1 0.0
11/08:00pm 18.8 14.8 10.6 59 4.5 NNW 22 32 12 17 1015.9 1015.5 0.0
11/07:30pm 19.9 15.1 10.3 54 5.2 NNW 26 35 14 19 1015.3 1014.9 0.0
11/07:00pm 21.2 16.0 10.4 50 5.9 NNW 28 37 15 20 1014.9 1014.5 0.0
11/06:30pm 21.9 16.0 10.4 48 6.3 NNW 32 41 17 22 1014.5 1014.1 0.0
11/06:00pm 22.9 17.3 10.0 44 7.1 NNW 30 39 16 21 1014.3 1013.9 0.0
11/05:30pm 23.2 18.0 10.3 44 7.1 NNW 28 35 15 19 1014.3 1013.9 0.0
11/05:00pm 23.8 18.8 10.8 44 7.3 NNW 28 35 15 19 1014.3 1013.9 0.0
11/04:30pm 24.4 19.5 11.4 44 7.4 NNW 28 39 15 21 1014.3 1013.9 0.0
11/04:00pm 24.1 18.8 11.1 44 7.3 N 30 39 16 21 1014.5 1014.1 0.0
11/03:30pm 25.0 19.7 12.6 46 7.2 NNW 32 39 17 21 1014.5 1014.1 0.0
11/03:00pm 24.5 20.0 11.5 44 7.4 NNW 26 39 14 21 1014.6 1014.2 0.0
11/02:30pm 24.5 19.9 11.1 43 7.6 NNW 26 33 14 18 1014.9 1014.5 0.0
11/02:00pm 24.0 20.4 9.9 41 7.8 NNW 19 30 10 16 1014.8 1014.4 0.0
11/01:30pm 24.5 20.6 7.2 33 9.1 NW 17 24 9 13 1014.8 1014.4 0.0
11/01:00pm 23.6 20.3 8.1 37 8.3 NW 15 24 8 13 1014.9 1014.5 0.0
11/12:30pm 23.0 20.4 7.9 38 8.0 N 11 20 6 11 1015.3 1014.9 0.0
11/12:00pm 22.9 20.3 9.3 42 7.4 NW 13 24 7 13 1015.6 1015.2 0.0
11/11:30am 21.7 19.3 7.2 39 7.5 SE 9 17 5 9 1015.9 1015.5 0.0
11/11:00am 21.2 18.8 7.1 40 7.3 S 9 17 5 9 1016.1 1015.7 0.0
11/10:30am 20.7 17.6 8.7 46 6.4 S 15 20 8 11 1016.0 1015.6 0.0
11/10:00am 20.1 16.7 7.8 45 6.4 SSE 15 20 8 11 1016.1 1015.7 0.0
11/09:30am 19.8 16.3 8.8 49 5.8 SSE 17 20 9 11 1016.2 1015.8 0.0
11/09:00am 18.7 14.8 8.7 52 5.2 SE 19 24 10 13 1016.1 1015.7 0.0
11/08:30am 17.3 13.9 9.0 58 4.3 SSE 17 24 9 13 1015.9 1015.5 0.0
11/08:00am 15.7 13.1 9.4 66 3.3 SSE 13 17 7 9 1015.7 1015.3 0.0
11/07:30am 14.2 11.5 9.0 71 2.7 S 13 17 7 9 1015.4 1015.0 0.0
11/07:00am 13.2 10.5 8.9 75 2.2 S 13 17 7 9 1015.0 1014.6 0.0
11/06:30am 12.7 10.6 8.4 75 2.2 S 9 13 5 7 1014.7 1014.3 0.0
11/06:00am 12.6 9.8 8.5 76 2.1 SSE 13 13 7 7 1014.2 1013.8 0.0
11/05:30am 13.6 11.3 8.9 73 2.4 S 11 15 6 8 1013.9 1013.5 0.0
11/05:00am 14.0 11.3 8.8 71 2.6 S 13 17 7 9 1013.7 1013.3 0.0
11/04:30am 14.5 11.8 8.9 69 2.9 S 13 15 7 8 1013.5 1013.1 0.0
11/04:00am 15.0 12.7 8.9 67 3.1 S 11 15 6 8 1013.4 1013.0 0.0
11/03:30am 15.3 13.0 9.0 66 3.2 S 11 15 6 8 1013.3 1012.9 0.0
11/03:00am 15.7 12.7 9.1 65 3.4 SSE 15 19 8 10 1013.2 1012.8 0.0
11/02:30am 16.7 13.3 9.1 61 4.0 SSE 17 20 9 11 1013.2 1012.8 0.0
11/02:00am 17.3 13.3 9.2 59 4.2 SSE 20 24 11 13 1013.2 1012.8 0.0
11/01:30am 17.8 13.8 9.2 57 4.5 SSE 20 26 11 14 1013.1 1012.7 0.0
11/01:00am 18.3 14.4 9.4 56 4.7 SSE 20 28 11 15 1013.0 1012.6 0.0
11/12:30am 18.6 14.8 9.1 54 5.0 SSE 19 24 10 13 1012.9 1012.5 0.0
11/12:00am 18.0 14.7 9.6 58 4.5 SSE 17 22 9 12 1012.7 1012.3 0.0
 
Date/Time
EDT
Temp
°C
App
Temp
°C
Dew
Point
Rel
Hum
%
Delta-T
°C
Wind Press
QNH
hPa
Press
MSL
hPa
Rain
since 9 am
mm
Dir
 
Spd
km/h
Gust
km/h
Spd
kts
Gust
kts
10/11:30pm 17.7 13.9 9.1 57 4.5 SSE 19 22 10 12 1012.6 1012.2 0.0
10/11:00pm 19.1 14.7 9.0 52 5.3 SSE 22 28 12 15 1012.7 1012.3 0.0
10/10:30pm 19.7 14.9 9.0 50 5.7 SSE 24 30 13 16 1012.7 1012.3 0.0

Other Formats:

Comma delimited format used in spreadsheet applications
http://www.bom.gov.au/fwo/IDT60801/IDT60801.95966.axf

JavaScript Object Notation format (JSON) in row-major order
http://www.bom.gov.au/fwo/IDT60801/IDT60801.95966.json